Terminal Aerodrome Forecast
Issued by NWS

Home | Current Version | Previous Version | Text Only | Print | Product List | Glossary On
Versions: 1 2 3 4 5 6 7 8 9 10 11 12 13 14 15 16 17 18 19 20 21 22 23 24 25 26 27 28 29 30 31 32 33 34
448
FTUS46 KEKA 211340 CCB
TAFUKI
TAF COR
KUKI 211340Z 2112/2212 21006KT P6SM OVC030
     FM211400 20010G18KT 6SM -SHRA BR BKN035
     FM211600 16005KT 5SM -SHRA BKN030
     FM212000 28008KT P6SM VCTS BKN035CB
     FM220200 31005KT P6SM -SHRA VCTS BKN040CB
     FM220500 31003KT P6SM BKN100=

USA.gov is the U.S. government's official web portal to all federal, state and local government web resources and services.